Fidelity, Missouri
Current Conditions -  °F | °C
As of 11:53 PM on Tuesday 27 Jan 2015 (Local Time) from KJLN Reporting Station
Clear Clear  
Wind Chill: 45°   Ceiling: Unl
Heat Index: 49°   Visibility: 10mi
Dew Point: 28°   Wind: 10mph
Humidity: 44%   Direction: 130°SE
Pressure: 30.06"   Gusts: NA
Location:  37.1542°N, 94.2882°W
Report Text: KJLN 280553Z AUTO 13009KT 10SM CLR 09/M02 A3006 RMK AO2 SLP179 T00941022 10144 20089 401780006 56009 $
Loading
Personal Weather Stations






























Interactive Weather Map New forecast layout! Learn more

10-Day Weather Forecast

Advertisements
Track Severe Weather on mobile